sensor_id;sensor_type;location;lat;lon;timestamp;temperature;humidity
52016;DHT22;38032;53.326;6.472;2022-10-23T00:00:29;11.50;99.90
52016;DHT22;38032;53.326;6.472;2022-10-23T00:02:55;11.50;99.90
52016;DHT22;38032;53.326;6.472;2022-10-23T00:05:21;11.50;99.90
52016;DHT22;38032;53.326;6.472;2022-10-23T00:07:51;11.60;99.90
52016;DHT22;38032;53.326;6.472;2022-10-23T00:10:17;11.60;99.90
52016;DHT22;38032;53.326;6.472;2022-10-23T00:12:43;11.50;99.90
52016;DHT22;38032;53.326;6.472;2022-10-23T00:15:10;11.60;99.90
52016;DHT22;38032;53.326;6.472;2022-10-23T00:17:36;11.50;99.90
52016;DHT22;38032;53.326;6.472;2022-10-23T00:20:04;11.50;99.90
52016;DHT22;38032;53.326;6.472;2022-10-23T00:22:30;11.50;99.90
52016;DHT22;38032;53.326;6.472;2022-10-23T00:24:56;11.60;99.90
52016;DHT22;38032;53.326;6.472;2022-10-23T00:27:21;11.60;99.90
52016;DHT22;38032;53.326;6.472;2022-10-23T00:29:47;11.60;99.90
52016;DHT22;38032;53.326;6.472;2022-10-23T00:32:13;11.50;99.90
52016;DHT22;38032;53.326;6.472;2022-10-23T00:34:39;11.50;99.90
52016;DHT22;38032;53.326;6.472;2022-10-23T00:37:05;11.60;99.90
52016;DHT22;38032;53.326;6.472;2022-10-23T00:39:30;11.60;99.90
52016;DHT22;38032;53.326;6.472;2022-10-23T00:41:56;11.60;99.90
52016;DHT22;38032;53.326;6.472;2022-10-23T00:46:48;11.50;99.90
52016;DHT22;38032;53.326;6.472;2022-10-23T00:49:15;11.50;99.90
52016;DHT22;38032;53.326;6.472;2022-10-23T00:51:48;11.60;99.90
52016;DHT22;38032;53.326;6.472;2022-10-23T00:54:17;11.60;99.90
52016;DHT22;38032;53.326;6.472;2022-10-23T00:56:44;11.60;99.90
52016;DHT22;38032;53.326;6.472;2022-10-23T00:59:11;11.60;99.90
52016;DHT22;38032;53.326;6.472;2022-10-23T01:01:37;11.60;99.90
52016;DHT22;38032;53.326;6.472;2022-10-23T01:04:04;11.50;99.90
52016;DHT22;38032;53.326;6.472;2022-10-23T01:06:40;11.50;99.90
52016;DHT22;38032;53.326;6.472;2022-10-23T01:09:17;11.50;99.90
52016;DHT22;38032;53.326;6.472;2022-10-23T01:11:52;11.50;99.90
52016;DHT22;38032;53.326;6.472;2022-10-23T01:17:21;11.40;99.90
52016;DHT22;38032;53.326;6.472;2022-10-23T01:19:56;11.40;99.90
52016;DHT22;38032;53.326;6.472;2022-10-23T01:22:47;11.40;99.90
52016;DHT22;38032;53.326;6.472;2022-10-23T01:25:34;11.30;99.90
52016;DHT22;38032;53.326;6.472;2022-10-23T01:28:09;11.40;99.90
52016;DHT22;38032;53.326;6.472;2022-10-23T01:30:41;11.40;99.90
52016;DHT22;38032;53.326;6.472;2022-10-23T01:33:18;11.40;99.90
52016;DHT22;38032;53.326;6.472;2022-10-23T01:35:49;11.30;99.90
52016;DHT22;38032;53.326;6.472;2022-10-23T01:38:24;11.30;99.90
52016;DHT22;38032;53.326;6.472;2022-10-23T01:41:02;11.30;99.90
52016;DHT22;38032;53.326;6.472;2022-10-23T01:43:39;11.30;99.90
52016;DHT22;38032;53.326;6.472;2022-10-23T01:46:09;11.30;99.90
52016;DHT22;38032;53.326;6.472;2022-10-23T01:48:36;11.30;99.90
52016;DHT22;38032;53.326;6.472;2022-10-23T01:51:05;11.30;99.90
52016;DHT22;38032;53.326;6.472;2022-10-23T01:53:36;11.30;99.90
52016;DHT22;38032;53.326;6.472;2022-10-23T01:56:10;11.30;99.90
52016;DHT22;38032;53.326;6.472;2022-10-23T01:58:37;11.30;99.90
52016;DHT22;38032;53.326;6.472;2022-10-23T02:01:06;11.20;99.90
52016;DHT22;38032;53.326;6.472;2022-10-23T02:03:33;11.30;99.90
52016;DHT22;38032;53.326;6.472;2022-10-23T02:06:01;11.20;99.90
52016;DHT22;38032;53.326;6.472;2022-10-23T02:08:26;11.20;99.90
52016;DHT22;38032;53.326;6.472;2022-10-23T02:13:29;11.20;99.90
52016;DHT22;38032;53.326;6.472;2022-10-23T02:16:06;11.20;99.90
52016;DHT22;38032;53.326;6.472;2022-10-23T02:18:44;11.20;99.90
52016;DHT22;38032;53.326;6.472;2022-10-23T02:21:16;11.20;99.90
52016;DHT22;38032;53.326;6.472;2022-10-23T02:23:51;11.30;99.90
52016;DHT22;38032;53.326;6.472;2022-10-23T02:26:24;11.20;99.90
52016;DHT22;38032;53.326;6.472;2022-10-23T02:29:03;11.20;99.90
52016;DHT22;38032;53.326;6.472;2022-10-23T02:31:31;11.20;99.90
52016;DHT22;38032;53.326;6.472;2022-10-23T02:33:57;11.20;99.90
52016;DHT22;38032;53.326;6.472;2022-10-23T02:36:23;11.20;99.90
52016;DHT22;38032;53.326;6.472;2022-10-23T02:38:49;11.20;99.90
52016;DHT22;38032;53.326;6.472;2022-10-23T02:46:40;11.10;99.90
52016;DHT22;38032;53.326;6.472;2022-10-23T02:52:04;11.10;99.90
52016;DHT22;38032;53.326;6.472;2022-10-23T03:00:03;10.90;99.90
52016;DHT22;38032;53.326;6.472;2022-10-23T03:02:43;10.90;99.90
52016;DHT22;38032;53.326;6.472;2022-10-23T03:05:14;10.90;99.90
52016;DHT22;38032;53.326;6.472;2022-10-23T03:07:41;10.90;99.90
52016;DHT22;38032;53.326;6.472;2022-10-23T03:10:09;10.90;99.90
52016;DHT22;38032;53.326;6.472;2022-10-23T03:12:35;10.90;99.90
52016;DHT22;38032;53.326;6.472;2022-10-23T03:15:01;10.90;99.90
52016;DHT22;38032;53.326;6.472;2022-10-23T03:17:26;10.80;99.90
52016;DHT22;38032;53.326;6.472;2022-10-23T03:19:52;10.70;99.90
52016;DHT22;38032;53.326;6.472;2022-10-23T03:22:18;10.80;99.90
52016;DHT22;38032;53.326;6.472;2022-10-23T03:24:44;10.80;99.90
52016;DHT22;38032;53.326;6.472;2022-10-23T03:27:09;10.70;99.90
52016;DHT22;38032;53.326;6.472;2022-10-23T03:29:36;10.70;99.90
52016;DHT22;38032;53.326;6.472;2022-10-23T03:32:03;10.70;99.90
52016;DHT22;38032;53.326;6.472;2022-10-23T03:34:28;10.70;99.90
52016;DHT22;38032;53.326;6.472;2022-10-23T03:36:54;10.70;99.90
52016;DHT22;38032;53.326;6.472;2022-10-23T03:39:20;10.70;99.90
52016;DHT22;38032;53.326;6.472;2022-10-23T03:41:46;10.70;99.90
52016;DHT22;38032;53.326;6.472;2022-10-23T03:44:12;10.80;99.90
52016;DHT22;38032;53.326;6.472;2022-10-23T03:46:38;10.70;99.90
52016;DHT22;38032;53.326;6.472;2022-10-23T03:49:05;10.70;99.90
52016;DHT22;38032;53.326;6.472;2022-10-23T03:51:31;10.70;99.90
52016;DHT22;38032;53.326;6.472;2022-10-23T03:53:56;10.70;99.90
52016;DHT22;38032;53.326;6.472;2022-10-23T03:56:22;10.70;99.90
52016;DHT22;38032;53.326;6.472;2022-10-23T03:58:48;10.70;99.90
52016;DHT22;38032;53.326;6.472;2022-10-23T04:01:14;10.60;99.90
52016;DHT22;38032;53.326;6.472;2022-10-23T04:03:40;10.60;99.90
52016;DHT22;38032;53.326;6.472;2022-10-23T04:06:06;10.50;99.90
52016;DHT22;38032;53.326;6.472;2022-10-23T04:08:32;10.60;99.90
52016;DHT22;38032;53.326;6.472;2022-10-23T04:10:57;10.50;99.90
52016;DHT22;38032;53.326;6.472;2022-10-23T04:13:23;10.50;99.90
52016;DHT22;38032;53.326;6.472;2022-10-23T04:15:50;10.50;99.90
52016;DHT22;38032;53.326;6.472;2022-10-23T04:18:16;10.50;99.90
52016;DHT22;38032;53.326;6.472;2022-10-23T04:20:43;10.60;99.90
52016;DHT22;38032;53.326;6.472;2022-10-23T04:23:09;10.50;99.90
52016;DHT22;38032;53.326;6.472;2022-10-23T04:25:34;10.50;99.90
52016;DHT22;38032;53.326;6.472;2022-10-23T04:28:00;10.50;99.90
52016;DHT22;38032;53.326;6.472;2022-10-23T04:30:26;10.50;99.90
52016;DHT22;38032;53.326;6.472;2022-10-23T04:32:52;10.40;99.90
52016;DHT22;38032;53.326;6.472;2022-10-23T04:35:18;10.40;99.90
52016;DHT22;38032;53.326;6.472;2022-10-23T04:37:45;10.60;99.90
52016;DHT22;38032;53.326;6.472;2022-10-23T04:40:11;10.40;99.90
52016;DHT22;38032;53.326;6.472;2022-10-23T04:42:37;10.40;99.90
52016;DHT22;38032;53.326;6.472;2022-10-23T04:45:03;10.30;99.90
52016;DHT22;38032;53.326;6.472;2022-10-23T04:47:29;10.40;99.90
52016;DHT22;38032;53.326;6.472;2022-10-23T04:49:55;10.40;99.90
52016;DHT22;38032;53.326;6.472;2022-10-23T04:52:21;10.40;99.90
52016;DHT22;38032;53.326;6.472;2022-10-23T04:59:39;11.50;99.90
52016;DHT22;38032;53.326;6.472;2022-10-23T05:02:05;10.40;99.90
52016;DHT22;38032;53.326;6.472;2022-10-23T05:04:31;10.40;99.90
52016;DHT22;38032;53.326;6.472;2022-10-23T05:06:57;10.40;99.90
52016;DHT22;38032;53.326;6.472;2022-10-23T05:09:23;10.40;99.90
52016;DHT22;38032;53.326;6.472;2022-10-23T05:11:48;10.40;99.90
52016;DHT22;38032;53.326;6.472;2022-10-23T05:14:14;10.40;99.90
52016;DHT22;38032;53.326;6.472;2022-10-23T05:16:51;10.40;99.90
52016;DHT22;38032;53.326;6.472;2022-10-23T05:19:21;10.40;99.90
52016;DHT22;38032;53.326;6.472;2022-10-23T05:21:48;10.40;99.90
52016;DHT22;38032;53.326;6.472;2022-10-23T05:24:21;10.40;99.90
52016;DHT22;38032;53.326;6.472;2022-10-23T05:26:47;10.40;99.90
52016;DHT22;38032;53.326;6.472;2022-10-23T05:29:16;10.30;99.90
52016;DHT22;38032;53.326;6.472;2022-10-23T05:31:43;10.30;99.90
52016;DHT22;38032;53.326;6.472;2022-10-23T05:34:10;10.40;99.90
52016;DHT22;38032;53.326;6.472;2022-10-23T05:36:37;10.50;99.90
52016;DHT22;38032;53.326;6.472;2022-10-23T05:39:04;10.30;99.90
52016;DHT22;38032;53.326;6.472;2022-10-23T05:41:30;10.60;99.90
52016;DHT22;38032;53.326;6.472;2022-10-23T05:43:56;10.30;99.90
52016;DHT22;38032;53.326;6.472;2022-10-23T05:46:21;10.30;99.90
52016;DHT22;38032;53.326;6.472;2022-10-23T05:48:49;10.40;99.90
52016;DHT22;38032;53.326;6.472;2022-10-23T05:51:16;10.30;99.90
52016;DHT22;38032;53.326;6.472;2022-10-23T05:53:47;10.40;99.90
52016;DHT22;38032;53.326;6.472;2022-10-23T05:56:13;10.40;99.90
52016;DHT22;38032;53.326;6.472;2022-10-23T05:58:39;10.30;99.90
52016;DHT22;38032;53.326;6.472;2022-10-23T06:01:07;10.30;99.90
52016;DHT22;38032;53.326;6.472;2022-10-23T06:03:33;10.40;99.90
52016;DHT22;38032;53.326;6.472;2022-10-23T06:05:59;10.30;99.90
52016;DHT22;38032;53.326;6.472;2022-10-23T06:08:25;10.30;99.90
52016;DHT22;38032;53.326;6.472;2022-10-23T06:10:50;10.40;99.90
52016;DHT22;38032;53.326;6.472;2022-10-23T06:13:16;10.30;99.90
52016;DHT22;38032;53.326;6.472;2022-10-23T06:15:42;10.40;99.90
52016;DHT22;38032;53.326;6.472;2022-10-23T06:18:08;10.40;99.90
52016;DHT22;38032;53.326;6.472;2022-10-23T06:20:35;10.40;99.90
52016;DHT22;38032;53.326;6.472;2022-10-23T06:23:02;10.40;99.90
52016;DHT22;38032;53.326;6.472;2022-10-23T06:25:28;10.40;99.90
52016;DHT22;38032;53.326;6.472;2022-10-23T06:27:54;10.30;99.90
52016;DHT22;38032;53.326;6.472;2022-10-23T06:30:20;10.20;99.90
52016;DHT22;38032;53.326;6.472;2022-10-23T06:32:45;10.40;99.90
52016;DHT22;38032;53.326;6.472;2022-10-23T06:35:11;10.20;99.90
52016;DHT22;38032;53.326;6.472;2022-10-23T06:37:37;10.40;99.90
52016;DHT22;38032;53.326;6.472;2022-10-23T06:40:04;10.30;99.90
52016;DHT22;38032;53.326;6.472;2022-10-23T06:42:30;10.40;99.90
52016;DHT22;38032;53.326;6.472;2022-10-23T06:44:56;10.50;99.90
52016;DHT22;38032;53.326;6.472;2022-10-23T06:47:22;10.50;99.90
52016;DHT22;38032;53.326;6.472;2022-10-23T06:49:48;10.50;99.90
52016;DHT22;38032;53.326;6.472;2022-10-23T06:52:14;10.50;99.90
52016;DHT22;38032;53.326;6.472;2022-10-23T06:54:39;10.60;99.90
52016;DHT22;38032;53.326;6.472;2022-10-23T06:57:05;10.60;99.90
52016;DHT22;38032;53.326;6.472;2022-10-23T06:59:31;10.60;99.90
52016;DHT22;38032;53.326;6.472;2022-10-23T07:01:57;10.60;99.90
52016;DHT22;38032;53.326;6.472;2022-10-23T07:04:23;10.60;99.90
52016;DHT22;38032;53.326;6.472;2022-10-23T07:06:48;10.60;99.90
52016;DHT22;38032;53.326;6.472;2022-10-23T07:09:14;10.70;99.90
52016;DHT22;38032;53.326;6.472;2022-10-23T07:11:40;10.80;99.90
52016;DHT22;38032;53.326;6.472;2022-10-23T07:14:06;10.80;99.90
52016;DHT22;38032;53.326;6.472;2022-10-23T07:16:31;10.80;99.90
52016;DHT22;38032;53.326;6.472;2022-10-23T07:18:58;10.80;99.90
52016;DHT22;38032;53.326;6.472;2022-10-23T07:21:26;10.90;99.90
52016;DHT22;38032;53.326;6.472;2022-10-23T07:23:53;11.00;99.90
52016;DHT22;38032;53.326;6.472;2022-10-23T07:26:19;11.00;99.90
52016;DHT22;38032;53.326;6.472;2022-10-23T07:28:46;11.20;99.90
52016;DHT22;38032;53.326;6.472;2022-10-23T07:31:12;11.20;99.90
52016;DHT22;38032;53.326;6.472;2022-10-23T07:33:38;11.00;99.90
52016;DHT22;38032;53.326;6.472;2022-10-23T07:36:06;11.20;99.90
52016;DHT22;38032;53.326;6.472;2022-10-23T07:38:32;11.30;99.90
52016;DHT22;38032;53.326;6.472;2022-10-23T07:41:00;11.80;99.90
52016;DHT22;38032;53.326;6.472;2022-10-23T07:43:26;11.40;99.90
52016;DHT22;38032;53.326;6.472;2022-10-23T07:45:52;11.30;99.90
52016;DHT22;38032;53.326;6.472;2022-10-23T07:48:19;11.50;99.90
52016;DHT22;38032;53.326;6.472;2022-10-23T07:50:45;11.40;99.90
52016;DHT22;38032;53.326;6.472;2022-10-23T07:53:16;11.40;99.90
52016;DHT22;38032;53.326;6.472;2022-10-23T07:55:49;11.50;99.90
52016;DHT22;38032;53.326;6.472;2022-10-23T07:58:15;11.60;99.90
52016;DHT22;38032;53.326;6.472;2022-10-23T08:00:41;11.70;99.90
52016;DHT22;38032;53.326;6.472;2022-10-23T08:03:07;11.70;99.90
52016;DHT22;38032;53.326;6.472;2022-10-23T08:05:33;11.70;99.90
52016;DHT22;38032;53.326;6.472;2022-10-23T08:07:59;11.70;99.90
52016;DHT22;38032;53.326;6.472;2022-10-23T08:10:25;11.80;99.90
52016;DHT22;38032;53.326;6.472;2022-10-23T08:12:50;11.80;99.90
52016;DHT22;38032;53.326;6.472;2022-10-23T08:15:16;12.00;99.90
52016;DHT22;38032;53.326;6.472;2022-10-23T08:17:42;11.90;99.90
52016;DHT22;38032;53.326;6.472;2022-10-23T08:20:08;12.10;99.90
52016;DHT22;38032;53.326;6.472;2022-10-23T08:22:34;11.80;99.90
52016;DHT22;38032;53.326;6.472;2022-10-23T08:25:01;12.00;99.90
52016;DHT22;38032;53.326;6.472;2022-10-23T08:27:27;12.10;99.90
52016;DHT22;38032;53.326;6.472;2022-10-23T08:29:53;12.20;99.90
52016;DHT22;38032;53.326;6.472;2022-10-23T08:32:19;12.10;99.90
52016;DHT22;38032;53.326;6.472;2022-10-23T08:34:45;12.30;99.90
52016;DHT22;38032;53.326;6.472;2022-10-23T08:37:10;12.40;99.90
52016;DHT22;38032;53.326;6.472;2022-10-23T08:39:36;12.40;99.90
52016;DHT22;38032;53.326;6.472;2022-10-23T08:42:02;12.80;99.90
52016;DHT22;38032;53.326;6.472;2022-10-23T08:47:05;12.50;99.90
52016;DHT22;38032;53.326;6.472;2022-10-23T08:49:50;12.80;99.90
52016;DHT22;38032;53.326;6.472;2022-10-23T08:52:27;12.60;99.90
52016;DHT22;38032;53.326;6.472;2022-10-23T08:58:06;12.90;99.90
52016;DHT22;38032;53.326;6.472;2022-10-23T09:00:35;13.00;99.90
52016;DHT22;38032;53.326;6.472;2022-10-23T09:03:03;13.00;99.90
52016;DHT22;38032;53.326;6.472;2022-10-23T09:05:38;13.20;99.90
52016;DHT22;38032;53.326;6.472;2022-10-23T09:08:21;13.30;99.90
52016;DHT22;38032;53.326;6.472;2022-10-23T09:11:10;13.40;99.90
52016;DHT22;38032;53.326;6.472;2022-10-23T09:13:48;13.70;99.90
52016;DHT22;38032;53.326;6.472;2022-10-23T09:16:27;13.70;99.90
52016;DHT22;38032;53.326;6.472;2022-10-23T09:18:57;13.70;99.90
52016;DHT22;38032;53.326;6.472;2022-10-23T09:21:26;13.80;99.90
52016;DHT22;38032;53.326;6.472;2022-10-23T09:23:52;14.10;99.90
52016;DHT22;38032;53.326;6.472;2022-10-23T09:26:18;14.20;99.90
52016;DHT22;38032;53.326;6.472;2022-10-23T09:28:47;14.60;99.90
52016;DHT22;38032;53.326;6.472;2022-10-23T09:31:14;15.00;99.90
52016;DHT22;38032;53.326;6.472;2022-10-23T09:33:40;15.20;99.90
52016;DHT22;38032;53.326;6.472;2022-10-23T09:36:16;15.80;99.90
52016;DHT22;38032;53.326;6.472;2022-10-23T09:41:33;16.40;99.90
52016;DHT22;38032;53.326;6.472;2022-10-23T09:44:10;16.50;99.90
52016;DHT22;38032;53.326;6.472;2022-10-23T09:46:47;16.50;99.90
52016;DHT22;38032;53.326;6.472;2022-10-23T09:49:18;16.50;99.90
52016;DHT22;38032;53.326;6.472;2022-10-23T09:51:55;16.50;99.90
52016;DHT22;38032;53.326;6.472;2022-10-23T09:54:23;16.50;99.90
52016;DHT22;38032;53.326;6.472;2022-10-23T09:56:51;16.50;99.90
52016;DHT22;38032;53.326;6.472;2022-10-23T09:59:20;16.60;99.90
52016;DHT22;38032;53.326;6.472;2022-10-23T10:01:50;16.40;99.90
52016;DHT22;38032;53.326;6.472;2022-10-23T10:04:16;16.60;99.90
52016;DHT22;38032;53.326;6.472;2022-10-23T10:06:43;16.50;99.90
52016;DHT22;38032;53.326;6.472;2022-10-23T10:09:14;16.60;99.90
52016;DHT22;38032;53.326;6.472;2022-10-23T10:11:50;16.60;99.90
52016;DHT22;38032;53.326;6.472;2022-10-23T10:14:48;16.80;99.90
52016;DHT22;38032;53.326;6.472;2022-10-23T10:17:27;16.60;99.90
52016;DHT22;38032;53.326;6.472;2022-10-23T10:25:35;16.70;99.90
52016;DHT22;38032;53.326;6.472;2022-10-23T10:30:39;16.70;99.90
52016;DHT22;38032;53.326;6.472;2022-10-23T10:33:21;16.80;99.90
52016;DHT22;38032;53.326;6.472;2022-10-23T10:36:02;16.80;99.90
52016;DHT22;38032;53.326;6.472;2022-10-23T10:38:50;16.90;99.90
52016;DHT22;38032;53.326;6.472;2022-10-23T10:46:57;17.10;99.90
52016;DHT22;38032;53.326;6.472;2022-10-23T10:49:37;17.20;99.90
52016;DHT22;38032;53.326;6.472;2022-10-23T10:52:21;17.30;99.90
52016;DHT22;38032;53.326;6.472;2022-10-23T10:55:13;17.30;99.90
52016;DHT22;38032;53.326;6.472;2022-10-23T10:57:46;17.50;99.90
52016;DHT22;38032;53.326;6.472;2022-10-23T11:00:17;17.50;99.90
52016;DHT22;38032;53.326;6.472;2022-10-23T11:02:53;17.50;99.90
52016;DHT22;38032;53.326;6.472;2022-10-23T11:05:30;17.50;99.90
52016;DHT22;38032;53.326;6.472;2022-10-23T11:08:01;17.60;99.90
52016;DHT22;38032;53.326;6.472;2022-10-23T11:10:29;17.70;99.90
52016;DHT22;38032;53.326;6.472;2022-10-23T11:12:56;17.60;99.90
52016;DHT22;38032;53.326;6.472;2022-10-23T11:15:37;17.70;99.90
52016;DHT22;38032;53.326;6.472;2022-10-23T11:18:12;17.80;99.90
52016;DHT22;38032;53.326;6.472;2022-10-23T11:23:40;17.40;99.90
52016;DHT22;38032;53.326;6.472;2022-10-23T11:26:14;17.70;99.90
52016;DHT22;38032;53.326;6.472;2022-10-23T11:31:44;17.70;99.90
52016;DHT22;38032;53.326;6.472;2022-10-23T11:36:59;17.60;99.90
52016;DHT22;38032;53.326;6.472;2022-10-23T11:39:31;17.60;99.90
52016;DHT22;38032;53.326;6.472;2022-10-23T11:42:14;17.60;99.90
52016;DHT22;38032;53.326;6.472;2022-10-23T11:44:45;17.70;99.90
52016;DHT22;38032;53.326;6.472;2022-10-23T11:47:33;17.50;99.90
52016;DHT22;38032;53.326;6.472;2022-10-23T11:50:12;17.60;99.90
52016;DHT22;38032;53.326;6.472;2022-10-23T11:52:51;17.70;99.90
52016;DHT22;38032;53.326;6.472;2022-10-23T11:55:27;17.60;99.90
52016;DHT22;38032;53.326;6.472;2022-10-23T11:58:12;17.50;99.90
52016;DHT22;38032;53.326;6.472;2022-10-23T12:00:52;17.40;99.90
52016;DHT22;38032;53.326;6.472;2022-10-23T12:03:24;17.30;99.90
52016;DHT22;38032;53.326;6.472;2022-10-23T12:05:58;17.40;99.90
52016;DHT22;38032;53.326;6.472;2022-10-23T12:08:27;17.30;99.90
52016;DHT22;38032;53.326;6.472;2022-10-23T12:10:54;17.30;99.90
52016;DHT22;38032;53.326;6.472;2022-10-23T12:16:02;17.20;99.90
52016;DHT22;38032;53.326;6.472;2022-10-23T12:18:29;17.30;99.90
52016;DHT22;38032;53.326;6.472;2022-10-23T12:20:59;17.30;99.90
52016;DHT22;38032;53.326;6.472;2022-10-23T12:28:38;17.20;99.90
52016;DHT22;38032;53.326;6.472;2022-10-23T12:31:21;17.10;99.90
52016;DHT22;38032;53.326;6.472;2022-10-23T12:34:16;17.00;99.90
52016;DHT22;38032;53.326;6.472;2022-10-23T12:39:32;17.10;99.90
52016;DHT22;38032;53.326;6.472;2022-10-23T12:42:01;17.10;99.90
52016;DHT22;38032;53.326;6.472;2022-10-23T12:44:27;17.10;99.90
52016;DHT22;38032;53.326;6.472;2022-10-23T12:46:56;17.00;99.90
52016;DHT22;38032;53.326;6.472;2022-10-23T12:49:25;17.00;99.90
52016;DHT22;38032;53.326;6.472;2022-10-23T12:52:05;17.00;99.90
52016;DHT22;38032;53.326;6.472;2022-10-23T12:54:39;17.00;99.90
52016;DHT22;38032;53.326;6.472;2022-10-23T12:57:21;16.90;99.90
52016;DHT22;38032;53.326;6.472;2022-10-23T12:59:47;16.90;99.90
52016;DHT22;38032;53.326;6.472;2022-10-23T13:02:28;17.00;99.90
52016;DHT22;38032;53.326;6.472;2022-10-23T13:04:56;17.10;99.90
52016;DHT22;38032;53.326;6.472;2022-10-23T13:07:27;16.90;99.90
52016;DHT22;38032;53.326;6.472;2022-10-23T13:09:53;16.90;99.90
52016;DHT22;38032;53.326;6.472;2022-10-23T13:12:26;16.80;99.90
52016;DHT22;38032;53.326;6.472;2022-10-23T13:14:57;17.00;99.90
52016;DHT22;38032;53.326;6.472;2022-10-23T13:17:35;16.90;99.90
52016;DHT22;38032;53.326;6.472;2022-10-23T13:20:09;16.90;99.90
52016;DHT22;38032;53.326;6.472;2022-10-23T13:22:35;16.90;99.90
52016;DHT22;38032;53.326;6.472;2022-10-23T13:25:01;17.20;99.90
52016;DHT22;38032;53.326;6.472;2022-10-23T13:27:32;16.90;99.90
52016;DHT22;38032;53.326;6.472;2022-10-23T13:29:58;16.80;99.90
52016;DHT22;38032;53.326;6.472;2022-10-23T13:32:28;16.80;99.90
52016;DHT22;38032;53.326;6.472;2022-10-23T13:34:55;16.80;99.90
52016;DHT22;38032;53.326;6.472;2022-10-23T13:37:24;16.90;99.90
52016;DHT22;38032;53.326;6.472;2022-10-23T13:40:05;17.00;99.90
52016;DHT22;38032;53.326;6.472;2022-10-23T13:42:34;16.70;99.90
52016;DHT22;38032;53.326;6.472;2022-10-23T13:45:00;16.70;99.90
52016;DHT22;38032;53.326;6.472;2022-10-23T13:47:26;16.70;99.90
52016;DHT22;38032;53.326;6.472;2022-10-23T13:49:52;16.70;99.90
52016;DHT22;38032;53.326;6.472;2022-10-23T13:52:19;16.60;99.90
52016;DHT22;38032;53.326;6.472;2022-10-23T13:54:46;16.80;99.90
52016;DHT22;38032;53.326;6.472;2022-10-23T13:57:13;16.70;99.90
52016;DHT22;38032;53.326;6.472;2022-10-23T13:59:40;16.70;99.90
52016;DHT22;38032;53.326;6.472;2022-10-23T14:02:18;16.70;99.90
52016;DHT22;38032;53.326;6.472;2022-10-23T14:04:44;16.90;99.90
52016;DHT22;38032;53.326;6.472;2022-10-23T14:07:10;16.70;99.90
52016;DHT22;38032;53.326;6.472;2022-10-23T14:09:36;16.60;99.90
52016;DHT22;38032;53.326;6.472;2022-10-23T14:12:02;16.60;99.90
52016;DHT22;38032;53.326;6.472;2022-10-23T14:14:28;16.70;99.90
52016;DHT22;38032;53.326;6.472;2022-10-23T14:16:54;16.80;99.90
52016;DHT22;38032;53.326;6.472;2022-10-23T14:19:20;16.60;99.90
52016;DHT22;38032;53.326;6.472;2022-10-23T14:21:46;16.50;99.90
52016;DHT22;38032;53.326;6.472;2022-10-23T14:24:11;16.70;99.90
52016;DHT22;38032;53.326;6.472;2022-10-23T14:26:39;16.50;99.90
52016;DHT22;38032;53.326;6.472;2022-10-23T14:29:05;16.50;99.90
52016;DHT22;38032;53.326;6.472;2022-10-23T14:31:31;16.50;99.90
52016;DHT22;38032;53.326;6.472;2022-10-23T14:33:57;16.50;99.90
52016;DHT22;38032;53.326;6.472;2022-10-23T14:36:26;16.60;99.90
52016;DHT22;38032;53.326;6.472;2022-10-23T14:38:56;16.50;99.90
52016;DHT22;38032;53.326;6.472;2022-10-23T14:41:24;16.60;99.90
52016;DHT22;38032;53.326;6.472;2022-10-23T14:43:50;16.40;99.90
52016;DHT22;38032;53.326;6.472;2022-10-23T14:46:19;16.30;99.90
52016;DHT22;38032;53.326;6.472;2022-10-23T14:48:45;16.40;99.90
52016;DHT22;38032;53.326;6.472;2022-10-23T14:51:20;16.50;99.90
52016;DHT22;38032;53.326;6.472;2022-10-23T14:53:47;16.40;99.90
52016;DHT22;38032;53.326;6.472;2022-10-23T14:56:13;16.40;99.90
52016;DHT22;38032;53.326;6.472;2022-10-23T14:58:39;16.40;99.90
52016;DHT22;38032;53.326;6.472;2022-10-23T15:01:06;16.40;99.90
52016;DHT22;38032;53.326;6.472;2022-10-23T15:03:32;16.40;99.90
52016;DHT22;38032;53.326;6.472;2022-10-23T15:05:58;16.30;99.90
52016;DHT22;38032;53.326;6.472;2022-10-23T15:08:24;16.30;99.90
52016;DHT22;38032;53.326;6.472;2022-10-23T15:10:50;16.40;99.90
52016;DHT22;38032;53.326;6.472;2022-10-23T15:13:16;16.30;99.90
52016;DHT22;38032;53.326;6.472;2022-10-23T15:15:42;16.40;99.90
52016;DHT22;38032;53.326;6.472;2022-10-23T15:18:08;16.30;99.90
52016;DHT22;38032;53.326;6.472;2022-10-23T15:20:33;16.30;99.90
52016;DHT22;38032;53.326;6.472;2022-10-23T15:22:59;16.30;99.90
52016;DHT22;38032;53.326;6.472;2022-10-23T15:25:26;16.20;99.90
52016;DHT22;38032;53.326;6.472;2022-10-23T15:27:52;16.20;99.90
52016;DHT22;38032;53.326;6.472;2022-10-23T15:30:17;16.20;99.90
52016;DHT22;38032;53.326;6.472;2022-10-23T15:32:43;16.60;99.90
52016;DHT22;38032;53.326;6.472;2022-10-23T15:35:09;16.20;99.90
52016;DHT22;38032;53.326;6.472;2022-10-23T15:37:35;15.90;99.90
52016;DHT22;38032;53.326;6.472;2022-10-23T15:40:01;16.30;99.90
52016;DHT22;38032;53.326;6.472;2022-10-23T15:42:27;16.20;99.90
52016;DHT22;38032;53.326;6.472;2022-10-23T15:44:53;16.20;99.90
52016;DHT22;38032;53.326;6.472;2022-10-23T15:47:19;16.10;99.90
52016;DHT22;38032;53.326;6.472;2022-10-23T15:49:45;16.10;99.90
52016;DHT22;38032;53.326;6.472;2022-10-23T15:52:11;16.10;99.90
52016;DHT22;38032;53.326;6.472;2022-10-23T15:54:37;16.10;99.90
52016;DHT22;38032;53.326;6.472;2022-10-23T15:57:03;16.10;99.90
52016;DHT22;38032;53.326;6.472;2022-10-23T15:59:30;16.10;99.90
52016;DHT22;38032;53.326;6.472;2022-10-23T16:01:57;16.10;99.90
52016;DHT22;38032;53.326;6.472;2022-10-23T16:04:23;16.00;99.90
52016;DHT22;38032;53.326;6.472;2022-10-23T16:06:49;16.00;99.90
52016;DHT22;38032;53.326;6.472;2022-10-23T16:09:18;16.00;99.90
52016;DHT22;38032;53.326;6.472;2022-10-23T16:11:47;15.90;99.90
52016;DHT22;38032;53.326;6.472;2022-10-23T16:14:15;15.80;99.90
52016;DHT22;38032;53.326;6.472;2022-10-23T16:16:42;15.80;99.90
52016;DHT22;38032;53.326;6.472;2022-10-23T16:19:09;15.80;99.90
52016;DHT22;38032;53.326;6.472;2022-10-23T16:21:35;15.70;99.90
52016;DHT22;38032;53.326;6.472;2022-10-23T16:24:03;15.70;99.90
52016;DHT22;38032;53.326;6.472;2022-10-23T16:26:29;15.60;99.90
52016;DHT22;38032;53.326;6.472;2022-10-23T16:29:03;15.60;99.90
52016;DHT22;38032;53.326;6.472;2022-10-23T16:31:30;15.60;99.90
52016;DHT22;38032;53.326;6.472;2022-10-23T16:33:58;15.60;99.90
52016;DHT22;38032;53.326;6.472;2022-10-23T16:36:24;15.50;99.90
52016;DHT22;38032;53.326;6.472;2022-10-23T16:38:50;15.50;99.90
52016;DHT22;38032;53.326;6.472;2022-10-23T16:41:16;15.50;99.90
52016;DHT22;38032;53.326;6.472;2022-10-23T16:43:41;15.40;99.90
52016;DHT22;38032;53.326;6.472;2022-10-23T16:46:13;15.40;99.90
52016;DHT22;38032;53.326;6.472;2022-10-23T16:48:40;15.40;99.90